createdAt,value
2023-02-06T00:02:08.952Z,103977.50
2023-02-06T00:04:37.062Z,103983.66
2023-02-06T00:07:05.348Z,103984.47
2023-02-06T00:09:33.602Z,103981.81
2023-02-06T00:12:01.812Z,103980.00
2023-02-06T00:14:29.938Z,103968.50
2023-02-06T00:16:57.880Z,103970.22
2023-02-06T00:19:27.288Z,103964.00
2023-02-06T00:21:55.321Z,103963.09
2023-02-06T00:24:23.305Z,103963.94
2023-02-06T00:26:51.229Z,103963.00
2023-02-06T00:29:20.248Z,103956.81
2023-02-06T00:31:48.265Z,103945.31
2023-02-06T00:34:16.329Z,103959.44
2023-02-06T00:36:46.236Z,103958.59
2023-02-06T00:39:14.195Z,103955.00
2023-02-06T00:41:42.260Z,103955.00
2023-02-06T00:44:10.738Z,103943.50
2023-02-06T00:46:38.766Z,103933.75
2023-02-06T00:49:06.877Z,103939.09
2023-02-06T00:51:36.302Z,103932.03
2023-02-06T00:54:06.121Z,103932.97
2023-02-06T00:56:34.483Z,103930.38
2023-02-06T00:59:02.801Z,103933.16
2023-02-06T01:01:30.953Z,103936.78
2023-02-06T01:03:58.959Z,103939.56
2023-02-06T01:06:26.979Z,103935.25
2023-02-06T01:08:54.933Z,103930.91
2023-02-06T01:11:27.655Z,103924.78
2023-02-06T01:13:55.690Z,103923.06
2023-02-06T01:16:26.029Z,103924.00
2023-02-06T01:18:54.604Z,103939.06
2023-02-06T01:21:24.625Z,103939.97
2023-02-06T01:23:54.430Z,103944.38
2023-02-06T01:26:27.287Z,103936.44
2023-02-06T01:28:56.337Z,103936.44
2023-02-06T01:31:27.449Z,103926.72
2023-02-06T01:33:57.136Z,103931.16
2023-02-06T01:36:26.002Z,103934.69
2023-02-06T01:38:54.234Z,103931.19
2023-02-06T01:41:23.950Z,103932.09
2023-02-06T01:44:16.046Z,103931.22
2023-02-06T01:46:45.955Z,103935.69
2023-02-06T01:49:20.810Z,103936.63
2023-02-06T01:51:50.952Z,103930.44
2023-02-06T01:54:18.928Z,103926.94
2023-02-06T01:56:51.505Z,103933.19
2023-02-06T01:59:22.063Z,103933.22
2023-02-06T02:01:50.443Z,103933.22
2023-02-06T02:04:22.658Z,103926.16
2023-02-06T02:07:00.104Z,103921.75
2023-02-06T02:09:28.527Z,103926.19
2023-02-06T02:11:56.612Z,103933.22
2023-02-06T02:14:26.403Z,103924.44
2023-02-06T02:17:08.825Z,103927.06
2023-02-06T02:20:13.953Z,103927.91
2023-02-06T02:22:52.787Z,103926.19
2023-02-06T02:25:49.124Z,103935.88
2023-02-06T02:28:44.004Z,103927.94
2023-02-06T02:31:30.515Z,103923.50
2023-02-06T02:34:21.869Z,103930.56
2023-02-06T02:36:57.095Z,103924.38
2023-02-06T02:39:37.210Z,103922.59
2023-02-06T02:42:13.780Z,103924.38
2023-02-06T02:44:48.955Z,103923.50
2023-02-06T02:47:20.497Z,103920.81
2023-02-06T02:49:49.700Z,103919.06
2023-02-06T02:52:20.762Z,103921.72
2023-02-06T02:54:48.709Z,103919.09
2023-02-06T02:57:26.122Z,103915.56
2023-02-06T02:59:57.138Z,103910.25
2023-02-06T03:02:32.656Z,103911.16
2023-02-06T03:05:04.357Z,103905.88
2023-02-06T03:07:38.245Z,103894.41
2023-02-06T03:10:14.722Z,103901.47
2023-02-06T03:12:47.294Z,103905.03
2023-02-06T03:15:28.066Z,103898.88
2023-02-06T03:18:02.339Z,103895.34
2023-02-06T03:20:33.710Z,103887.41
2023-02-06T03:23:05.423Z,103881.22
2023-02-06T03:25:37.663Z,103890.94
2023-02-06T03:28:12.282Z,103881.22
2023-02-06T03:30:42.436Z,103875.06
2023-02-06T03:33:14.420Z,103882.09
2023-02-06T03:35:43.559Z,103882.06
2023-02-06T03:38:14.268Z,103882.94
2023-02-06T03:40:46.593Z,103889.13
2023-02-06T03:43:19.078Z,103881.19
2023-02-06T03:45:49.929Z,103867.94
2023-02-06T03:48:23.049Z,103870.59
2023-02-06T03:50:55.282Z,103867.91
2023-02-06T03:53:26.683Z,103867.03
2023-02-06T03:56:00.236Z,103873.19
2023-02-06T03:58:28.192Z,103860.81
2023-02-06T04:00:56.724Z,103872.28
2023-02-06T04:03:25.531Z,103874.06
2023-02-06T04:05:53.476Z,103864.34
2023-02-06T04:08:21.497Z,103854.66
2023-02-06T04:10:51.290Z,103850.28
2023-02-06T04:13:19.511Z,103847.66
2023-02-06T04:15:48.564Z,103843.25
2023-02-06T04:18:16.996Z,103852.09
2023-02-06T04:20:45.218Z,103852.94
2023-02-06T04:23:13.215Z,103853.88
2023-02-06T04:25:41.223Z,103855.63
2023-02-06T04:28:12.026Z,103859.16
2023-02-06T04:30:40.058Z,103860.03
2023-02-06T04:33:08.078Z,103855.63
2023-02-06T04:35:36.522Z,103859.16
2023-02-06T04:38:04.708Z,103854.72
2023-02-06T04:40:33.028Z,103862.69
2023-02-06T04:43:01.633Z,103853.84
2023-02-06T04:45:31.192Z,103852.97
2023-02-06T04:48:00.391Z,103852.97
2023-02-06T04:50:31.419Z,103848.56
2023-02-06T04:53:00.003Z,103839.72
2023-02-06T04:55:28.181Z,103841.50
2023-02-06T04:57:56.199Z,103848.53
2023-02-06T05:00:24.521Z,103847.66
2023-02-06T05:02:53.996Z,103836.19
2023-02-06T05:05:22.034Z,103852.94
2023-02-06T05:07:50.212Z,103833.50
2023-02-06T05:10:18.342Z,103832.59
2023-02-06T05:12:50.909Z,103846.72
2023-02-06T05:15:19.247Z,103835.16
2023-02-06T05:17:47.303Z,103824.53
2023-02-06T05:20:16.815Z,103839.53
2023-02-06T05:22:44.826Z,103822.69
2023-02-06T05:25:12.832Z,103825.31
2023-02-06T05:27:40.893Z,103819.94
2023-02-06T05:30:09.766Z,103817.25
2023-02-06T05:32:37.839Z,103823.44
2023-02-06T05:35:06.206Z,103817.22
2023-02-06T05:37:37.225Z,103815.41
2023-02-06T05:40:06.020Z,103806.56
2023-02-06T05:42:34.336Z,103815.38
2023-02-06T05:45:02.712Z,103810.03
2023-02-06T05:47:30.800Z,103802.94
2023-02-06T05:49:58.936Z,103802.03
2023-02-06T05:52:27.011Z,103810.81
2023-02-06T05:54:56.530Z,103809.91
2023-02-06T05:57:24.999Z,103808.09
2023-02-06T05:59:52.980Z,103811.56
2023-02-06T06:02:21.264Z,103813.28
2023-02-06T06:04:49.230Z,103812.34
2023-02-06T06:07:17.805Z,103803.47
2023-02-06T06:09:45.782Z,103810.53
2023-02-06T06:12:15.416Z,103816.69
2023-02-06T06:14:43.643Z,103803.34
2023-02-06T06:17:11.595Z,103815.69
2023-02-06T06:19:39.867Z,103806.84
2023-02-06T06:22:08.057Z,103797.09
2023-02-06T06:24:36.162Z,103797.91
2023-02-06T06:27:04.417Z,103809.38
2023-02-06T06:29:34.170Z,103810.31
2023-02-06T06:32:02.128Z,103818.28
2023-02-06T06:34:30.184Z,103808.56
2023-02-06T06:36:58.175Z,103805.06
2023-02-06T06:39:26.468Z,103817.44
2023-02-06T06:41:54.494Z,103817.47
2023-02-06T06:44:23.034Z,103820.13
2023-02-06T06:46:52.681Z,103808.63
2023-02-06T06:49:20.924Z,103809.47
2023-02-06T06:51:48.912Z,103804.97
2023-02-06T06:54:19.583Z,103803.13
2023-02-06T06:56:47.556Z,103801.28
2023-02-06T06:59:15.483Z,103810.94
2023-02-06T07:01:43.653Z,103795.81
2023-02-06T07:04:13.264Z,103793.06
2023-02-06T07:06:41.237Z,103793.00
2023-02-06T07:09:09.199Z,103795.63
2023-02-06T07:11:37.381Z,103792.00
2023-02-06T07:14:06.119Z,103793.75
2023-02-06T07:16:34.362Z,103796.34
2023-02-06T07:19:02.603Z,103779.53
2023-02-06T07:21:32.026Z,103791.94
2023-02-06T07:24:00.313Z,103789.28
2023-02-06T07:26:28.605Z,103789.28
2023-02-06T07:28:56.627Z,103790.22
2023-02-06T07:31:24.648Z,103789.34
2023-02-06T07:33:52.655Z,103794.66
2023-02-06T07:36:20.875Z,103785.00
2023-02-06T07:38:50.143Z,103789.44
2023-02-06T07:41:18.097Z,103797.44
2023-02-06T07:43:46.104Z,103789.56
2023-02-06T07:46:14.378Z,103795.81
2023-02-06T07:48:42.569Z,103791.44
2023-02-06T07:51:11.395Z,103789.66
2023-02-06T07:53:40.055Z,103790.50
2023-02-06T07:56:15.274Z,103786.91
2023-02-06T07:58:43.622Z,103791.28
2023-02-06T08:01:12.181Z,103785.88
2023-02-06T08:03:40.186Z,103789.34
2023-02-06T08:06:12.274Z,103784.88
2023-02-06T08:08:40.283Z,103783.91
2023-02-06T08:11:09.770Z,103774.13
2023-02-06T08:13:39.961Z,103782.88
2023-02-06T08:16:11.470Z,103777.41
2023-02-06T08:18:40.309Z,103774.66
2023-02-06T08:21:12.306Z,103769.25
2023-02-06T08:23:40.658Z,103766.38
2023-02-06T08:26:11.991Z,103761.72
2023-02-06T08:28:42.424Z,103762.44
2023-02-06T08:31:12.123Z,103761.38
2023-02-06T08:33:40.424Z,103770.03
2023-02-06T08:36:10.165Z,103766.34
2023-02-06T08:38:38.743Z,103759.06
2023-02-06T08:41:07.719Z,103755.34
2023-02-06T08:43:35.618Z,103756.03
2023-02-06T08:46:05.233Z,103762.06
2023-02-06T08:48:33.467Z,103752.91
2023-02-06T08:51:07.160Z,103761.53
2023-02-06T08:53:35.886Z,103759.47
2023-02-06T08:56:07.200Z,103756.59
2023-02-06T08:58:36.164Z,103754.50
2023-02-06T09:01:08.897Z,103747.19
2023-02-06T09:03:37.585Z,103754.06
2023-02-06T09:06:10.368Z,103736.88
2023-02-06T09:08:39.389Z,103736.56
2023-02-06T09:11:12.523Z,103737.13
2023-02-06T09:13:41.138Z,103733.22
2023-02-06T09:16:11.258Z,103733.84
2023-02-06T09:18:39.828Z,103737.16
2023-02-06T09:21:11.756Z,103736.91
2023-02-06T09:23:40.826Z,103729.47
2023-02-06T09:26:10.062Z,103730.13
2023-02-06T09:28:38.379Z,103733.44
2023-02-06T09:31:08.100Z,103726.09
2023-02-06T09:33:38.884Z,103731.16
2023-02-06T09:36:09.117Z,103734.63
2023-02-06T09:38:39.589Z,103731.69
2023-02-06T09:41:16.624Z,103726.22
2023-02-06T09:43:50.873Z,103724.28
2023-02-06T09:46:23.543Z,103726.03
2023-02-06T09:48:53.023Z,103728.72
2023-02-06T09:51:34.255Z,103727.72
2023-02-06T09:54:10.013Z,103720.56
2023-02-06T09:56:43.451Z,103721.31
2023-02-06T09:59:18.497Z,103721.19
2023-02-06T10:01:55.114Z,103719.28
2023-02-06T10:04:39.451Z,103721.19
2023-02-06T10:07:22.300Z,103717.63
2023-02-06T10:09:55.396Z,103731.00
2023-02-06T10:12:28.744Z,103718.63
2023-02-06T10:15:02.238Z,103716.03
2023-02-06T10:17:34.115Z,103711.63
2023-02-06T10:20:07.581Z,103709.00
2023-02-06T10:22:44.415Z,103702.91
2023-02-06T10:25:25.514Z,103706.56
2023-02-06T10:28:02.311Z,103713.81
2023-02-06T10:30:40.105Z,103707.72
2023-02-06T10:33:25.219Z,103694.50
2023-02-06T10:36:02.379Z,103695.44
2023-02-06T10:38:48.249Z,103699.84
2023-02-06T10:41:24.981Z,103690.16
2023-02-06T10:43:57.243Z,103695.44
2023-02-06T10:46:44.948Z,103687.22
2023-02-06T10:49:20.065Z,103685.28
2023-02-06T10:51:53.834Z,103677.06
2023-02-06T10:54:25.963Z,103678.69
2023-02-06T10:56:56.384Z,103677.59
2023-02-06T10:59:29.740Z,103673.84
2023-02-06T11:02:18.223Z,103665.63
2023-02-06T11:04:54.826Z,103659.28
2023-02-06T11:07:28.691Z,103663.59
2023-02-06T11:09:57.392Z,103658.09
2023-02-06T11:12:31.294Z,103667.78
2023-02-06T11:15:05.159Z,103654.25
2023-02-06T11:17:33.893Z,103654.13
2023-02-06T11:20:17.155Z,103654.91
2023-02-06T11:22:52.690Z,103659.28
2023-02-06T11:25:27.079Z,103661.84
2023-02-06T11:27:55.777Z,103658.19
2023-02-06T11:30:33.601Z,103660.75
2023-02-06T11:33:06.289Z,103649.16
2023-02-06T11:35:42.042Z,103651.66
2023-02-06T11:38:17.448Z,103643.50
2023-02-06T11:40:54.798Z,103642.56
2023-02-06T11:43:24.873Z,103644.94
2023-02-06T11:46:07.804Z,103640.19
2023-02-06T11:48:39.179Z,103634.69
2023-02-06T11:51:08.893Z,103638.84
2023-02-06T11:53:39.470Z,103632.22
2023-02-06T11:56:18.367Z,103623.06
2023-02-06T11:58:46.952Z,103630.88
2023-02-06T12:01:21.336Z,103620.09
2023-02-06T12:03:58.762Z,103628.03
2023-02-06T12:06:32.326Z,103616.19
2023-02-06T12:09:04.187Z,103613.34
2023-02-06T12:11:37.242Z,103607.91
2023-02-06T12:14:11.239Z,103605.94
2023-02-06T12:16:42.301Z,103598.59
2023-02-06T12:19:17.691Z,103589.44
2023-02-06T12:21:49.719Z,103585.56
2023-02-06T12:24:32.593Z,103585.28
2023-02-06T12:27:06.790Z,103586.75
2023-02-06T12:29:39.206Z,103584.91
2023-02-06T12:32:15.127Z,103576.53
2023-02-06T12:34:53.797Z,103571.75
2023-02-06T12:37:31.606Z,103569.47
2023-02-06T12:40:01.943Z,103561.31
2023-02-06T12:42:38.092Z,103553.94
2023-02-06T12:45:16.653Z,103554.53
2023-02-06T12:47:50.273Z,103550.69
2023-02-06T12:50:23.378Z,103552.03
2023-02-06T12:52:54.963Z,103545.59
2023-02-06T12:55:29.388Z,103534.47
2023-02-06T12:57:57.829Z,103536.00
2023-02-06T13:00:48.674Z,103540.97
2023-02-06T13:03:27.395Z,103541.63
2023-02-06T13:06:01.781Z,103533.38
2023-02-06T13:08:39.662Z,103536.50
2023-02-06T13:11:15.271Z,103531.94
2023-02-06T13:13:43.968Z,103536.97
2023-02-06T13:16:11.983Z,103528.03
2023-02-06T13:18:53.562Z,103541.91
2023-02-06T13:21:25.430Z,103532.81
2023-02-06T13:24:13.616Z,103529.72
2023-02-06T13:27:14.555Z,103531.13
2023-02-06T13:29:44.025Z,103527.31
2023-02-06T13:32:43.781Z,103514.38
2023-02-06T13:35:21.837Z,103521.19
2023-02-06T13:37:52.027Z,103510.00
2023-02-06T13:40:31.080Z,103511.50
2023-02-06T13:43:06.025Z,103508.44
2023-02-06T13:45:39.062Z,103500.72
2023-02-06T13:48:42.895Z,103496.47
2023-02-06T13:51:27.733Z,103503.44
2023-02-06T13:54:26.808Z,103492.41
2023-02-06T13:57:15.840Z,103490.84
2023-02-06T13:59:49.751Z,103487.81
2023-02-06T14:02:27.680Z,103484.69
2023-02-06T14:04:56.207Z,103472.94
2023-02-06T14:07:44.296Z,103484.50
2023-02-06T14:10:43.011Z,103478.97
2023-02-06T14:13:25.001Z,103475.72
2023-02-06T14:16:06.173Z,103475.19
2023-02-06T14:18:45.412Z,103478.84
2023-02-06T14:21:26.261Z,103480.78
2023-02-06T14:24:28.008Z,103486.19
2023-02-06T14:27:08.258Z,103480.00
2023-02-06T14:29:47.319Z,103481.44
2023-02-06T14:32:33.843Z,103472.78
2023-02-06T14:35:17.197Z,103468.56
2023-02-06T14:38:03.670Z,103472.72
2023-02-06T14:40:39.646Z,103468.66
2023-02-06T14:43:13.171Z,103463.16
2023-02-06T14:45:51.591Z,103466.09
2023-02-06T14:48:32.811Z,103475.16
2023-02-06T14:51:00.827Z,103477.78
2023-02-06T14:53:32.419Z,103473.19
2023-02-06T14:56:15.411Z,103467.50
2023-02-06T14:58:46.577Z,103464.06
2023-02-06T15:01:21.229Z,103478.53
2023-02-06T15:03:54.754Z,103474.28
2023-02-06T15:06:35.448Z,103472.00
2023-02-06T15:09:03.723Z,103468.69
2023-02-06T15:11:33.534Z,103470.53
2023-02-06T15:14:05.463Z,103459.28
2023-02-06T15:16:47.107Z,103458.56
2023-02-06T15:19:21.353Z,103457.41
2023-02-06T15:21:50.506Z,103454.75
2023-02-06T15:24:46.277Z,103446.78
2023-02-06T15:27:23.404Z,103445.13
2023-02-06T15:29:52.614Z,103448.91
2023-02-06T15:32:27.520Z,103447.44
2023-02-06T15:34:57.001Z,103439.75
2023-02-06T15:37:29.247Z,103431.28
2023-02-06T15:40:02.726Z,103434.03
2023-02-06T15:42:30.891Z,103417.22
2023-02-06T15:44:59.329Z,103424.97
2023-02-06T15:47:27.825Z,103424.91
2023-02-06T15:50:00.463Z,103422.84
2023-02-06T15:52:39.565Z,103421.06
2023-02-06T15:55:08.121Z,103426.16
2023-02-06T15:57:40.352Z,103413.22
2023-02-06T16:00:24.542Z,103417.06
2023-02-06T16:02:54.447Z,103419.91
2023-02-06T16:05:30.619Z,103417.59
2023-02-06T16:07:59.485Z,103412.69
2023-02-06T16:10:29.688Z,103411.31
2023-02-06T16:13:00.253Z,103401.31
2023-02-06T16:15:32.240Z,103399.75
2023-02-06T16:18:02.304Z,103389.28
2023-02-06T16:20:37.250Z,103389.78
2023-02-06T16:23:23.347Z,103389.50
2023-02-06T16:26:02.384Z,103391.09
2023-02-06T16:31:02.478Z,103398.97
2023-02-06T16:33:35.745Z,103393.72
2023-02-06T16:36:05.681Z,103391.44
2023-02-06T16:38:34.093Z,103396.69
2023-02-06T16:41:02.348Z,103394.97
2023-02-06T16:43:32.426Z,103396.84
2023-02-06T16:46:02.942Z,103393.19
2023-02-06T16:48:30.967Z,103400.34
2023-02-06T16:51:00.648Z,103403.63
2023-02-06T16:53:30.542Z,103405.19
2023-02-06T16:55:58.970Z,103403.69
2023-02-06T16:58:30.320Z,103402.88
2023-02-06T17:00:58.823Z,103403.00
2023-02-06T17:03:26.897Z,103402.59
2023-02-06T17:05:55.173Z,103402.31
2023-02-06T17:08:25.183Z,103398.22
2023-02-06T17:10:54.597Z,103400.75
2023-02-06T17:13:24.757Z,103406.81
2023-02-06T17:15:53.662Z,103413.75
2023-02-06T17:18:24.347Z,103412.63
2023-02-06T17:20:56.227Z,103410.63
2023-02-06T17:23:27.668Z,103420.13
2023-02-06T17:25:57.363Z,103424.25
2023-02-06T17:28:25.366Z,103430.94
2023-02-06T17:30:53.627Z,103434.22
2023-02-06T17:33:21.685Z,103436.38
2023-02-06T17:35:50.087Z,103439.50
2023-02-06T17:38:18.202Z,103439.97
2023-02-06T17:40:46.552Z,103434.97
2023-02-06T17:43:16.345Z,103439.88
2023-02-06T17:45:45.085Z,103446.53
2023-02-06T17:48:13.639Z,103446.00
2023-02-06T17:50:42.392Z,103449.78
2023-02-06T17:53:12.834Z,103444.72
2023-02-06T17:55:42.301Z,103448.59
2023-02-06T17:58:11.178Z,103450.63
2023-02-06T18:00:41.095Z,103446.47
2023-02-06T18:03:09.675Z,103458.25
2023-02-06T18:05:38.240Z,103459.44
2023-02-06T18:08:06.893Z,103454.28
2023-02-06T18:16:08.114Z,103462.03
2023-02-06T18:18:36.460Z,103476.44
2023-02-06T18:21:04.642Z,103469.53
2023-02-06T18:23:32.682Z,103483.03
2023-02-06T18:28:55.794Z,103481.59
2023-02-06T18:31:29.273Z,103468.44
2023-02-06T18:33:59.048Z,103475.78
2023-02-06T18:36:29.959Z,103478.59
2023-02-06T18:38:59.676Z,103475.09
2023-02-06T18:41:45.773Z,103477.03
2023-02-06T18:44:14.445Z,103476.38
2023-02-06T18:46:45.232Z,103480.94
2023-02-06T18:49:14.083Z,103466.00
2023-02-06T18:51:42.171Z,103474.91
2023-02-06T18:54:10.600Z,103472.28
2023-02-06T18:56:39.469Z,103467.13
2023-02-06T18:59:08.166Z,103468.06
2023-02-06T19:01:36.559Z,103461.13
2023-02-06T19:04:06.730Z,103473.63
2023-02-06T19:06:36.882Z,103466.59
2023-02-06T19:09:07.930Z,103465.00
2023-02-06T19:11:36.631Z,103459.88
2023-02-06T19:14:05.768Z,103466.94
2023-02-06T19:16:34.331Z,103461.75
2023-02-06T19:19:02.773Z,103459.25
2023-02-06T19:21:32.478Z,103461.03
2023-02-06T19:24:01.346Z,103456.69
2023-02-06T19:26:32.206Z,103460.28
2023-02-06T19:29:01.093Z,103456.81
2023-02-06T19:31:32.606Z,103460.34
2023-02-06T19:34:02.422Z,103458.59
2023-02-06T19:36:32.480Z,103449.75
2023-02-06T19:39:04.439Z,103450.59
2023-02-06T19:41:34.801Z,103455.81
2023-02-06T19:44:05.587Z,103446.97
2023-02-06T19:46:34.370Z,103445.97
2023-02-06T19:49:02.781Z,103446.81
2023-02-06T19:51:34.374Z,103442.28
2023-02-06T19:54:03.014Z,103452.88
2023-02-06T19:56:34.700Z,103448.41
2023-02-06T19:59:04.915Z,103449.19
2023-02-06T20:01:36.216Z,103448.22
2023-02-06T20:04:05.131Z,103449.00
2023-02-06T20:06:35.241Z,103459.63
2023-02-06T20:09:04.938Z,103450.66
2023-02-06T20:11:34.265Z,103450.59
2023-02-06T20:14:02.256Z,103449.69
2023-02-06T20:16:33.010Z,103447.84
2023-02-06T20:19:07.662Z,103449.59
2023-02-06T20:21:39.996Z,103450.34
2023-02-06T20:24:11.831Z,103447.69
2023-02-06T20:26:41.532Z,103445.00
2023-02-06T20:29:10.826Z,103441.38
2023-02-06T20:31:39.098Z,103436.97
2023-02-06T20:34:07.295Z,103439.59
2023-02-06T20:36:36.792Z,103437.00
2023-02-06T20:39:05.421Z,103437.78
2023-02-06T20:41:34.185Z,103436.13
2023-02-06T20:44:03.478Z,103433.47
2023-02-06T20:46:33.029Z,103433.53
2023-02-06T20:49:02.581Z,103430.06
2023-02-06T20:51:32.238Z,103436.28
2023-02-06T20:54:03.024Z,103427.47
2023-02-06T20:56:31.154Z,103424.00
2023-02-06T20:59:03.474Z,103416.16
2023-02-06T21:01:35.919Z,103410.94
2023-02-06T21:04:08.724Z,103413.63
2023-02-06T21:06:44.878Z,103410.28
2023-02-06T21:09:21.552Z,103415.91
2023-02-06T21:11:54.824Z,103427.63
2023-02-06T21:14:24.067Z,103434.94
2023-02-06T21:16:55.488Z,103429.88
2023-02-06T21:19:27.813Z,103429.16
2023-02-06T21:22:14.316Z,103421.34
2023-02-06T21:24:48.367Z,103420.63
2023-02-06T21:27:18.784Z,103413.56
2023-02-06T21:29:51.600Z,103405.81
2023-02-06T21:32:22.621Z,103403.34
2023-02-06T21:34:54.316Z,103401.78
2023-02-06T21:37:23.116Z,103400.13
2023-02-06T21:39:56.655Z,103395.78
2023-02-06T21:42:27.553Z,103394.22
2023-02-06T21:44:57.974Z,103386.38
2023-02-06T21:47:28.897Z,103397.09
2023-02-06T21:49:57.844Z,103398.13
2023-02-06T21:52:26.229Z,103393.84
2023-02-06T21:54:57.352Z,103408.03
2023-02-06T21:57:27.575Z,103409.88
2023-02-06T21:59:56.090Z,103410.75
2023-02-06T22:02:24.150Z,103409.81
2023-02-06T22:04:52.550Z,103420.44
2023-02-06T22:07:21.725Z,103407.16
2023-02-06T22:09:50.361Z,103404.47
2023-02-06T22:12:19.911Z,103398.28
2023-02-06T22:14:47.970Z,103398.34
2023-02-06T22:17:16.442Z,103406.47
2023-02-06T22:19:44.515Z,103409.44
2023-02-06T22:22:12.844Z,103406.91
2023-02-06T22:24:41.884Z,103398.19
2023-02-06T22:27:10.015Z,103398.19
2023-02-06T22:29:39.547Z,103389.38
2023-02-06T22:32:08.144Z,103392.22
2023-02-06T22:34:36.622Z,103390.50
2023-02-06T22:37:04.914Z,103401.09
2023-02-06T22:39:33.212Z,103393.25
2023-02-06T22:42:02.946Z,103388.88
2023-02-06T22:44:33.840Z,103389.88
2023-02-06T22:47:04.126Z,103399.69
2023-02-06T22:49:38.764Z,103403.28
2023-02-06T22:52:26.849Z,103407.72
2023-02-06T22:54:54.843Z,103399.84
2023-02-06T22:57:25.003Z,103401.75
2023-02-06T23:00:08.336Z,103402.72
2023-02-06T23:02:46.525Z,103391.31
2023-02-06T23:05:20.471Z,103398.56
2023-02-06T23:07:48.543Z,103401.38
2023-02-06T23:10:19.146Z,103389.13
2023-02-06T23:12:47.564Z,103391.97
2023-02-06T23:15:15.919Z,103386.81
2023-02-06T23:17:45.773Z,103380.72
2023-02-06T23:20:14.836Z,103387.97
2023-02-06T23:22:42.903Z,103382.75
2023-02-06T23:25:10.848Z,103388.19
2023-02-06T23:27:39.270Z,103398.09
2023-02-06T23:30:08.185Z,103391.13
2023-02-06T23:32:41.708Z,103393.00
2023-02-06T23:35:11.733Z,103386.88
2023-02-06T23:37:39.849Z,103392.22
2023-02-06T23:40:09.952Z,103382.53
2023-02-06T23:42:38.217Z,103379.91
2023-02-06T23:45:09.361Z,103378.09
2023-02-06T23:47:37.456Z,103383.28
2023-02-06T23:50:06.307Z,103377.94
2023-02-06T23:52:35.962Z,103377.94
2023-02-06T23:55:04.116Z,103379.63
2023-02-06T23:57:32.210Z,103386.59
